createdAt,value
2024-01-04T00:00:56.918Z,96960.72
2024-01-04T00:04:01.055Z,96950.91
2024-01-04T00:07:03.346Z,96956.63
2024-01-04T00:10:05.324Z,96962.13
2024-01-04T00:13:06.859Z,96957.41
2024-01-04T00:16:11.855Z,96949.66
2024-01-04T00:19:14.961Z,96970.13
2024-01-04T00:22:16.552Z,96976.25
2024-01-04T00:25:18.222Z,96978.47
2024-01-04T00:28:19.979Z,96976.22
2024-01-04T00:31:21.403Z,96980.56
2024-01-04T00:34:24.444Z,96991.16
2024-01-04T00:37:25.948Z,96991.63
2024-01-04T00:40:27.498Z,96993.97
2024-01-04T00:43:29.166Z,97005.16
2024-01-04T00:46:30.647Z,96995.22
2024-01-04T00:49:33.382Z,96996.28
2024-01-04T00:52:34.815Z,97023.00
2024-01-04T00:55:36.322Z,97015.44
2024-01-04T00:58:38.218Z,97022.91
2024-01-04T01:01:39.688Z,97036.13
2024-01-04T01:04:42.813Z,97043.94
2024-01-04T01:07:44.216Z,97057.38
2024-01-04T01:10:45.609Z,97041.91
2024-01-04T01:13:47.660Z,97058.66
2024-01-04T01:16:49.251Z,97058.72
2024-01-04T01:19:52.199Z,97066.91
2024-01-04T01:22:53.693Z,97082.59
2024-01-04T01:25:55.403Z,97073.63
2024-01-04T01:28:56.917Z,97085.25
2024-01-04T01:31:58.377Z,97090.38
2024-01-04T01:35:01.218Z,97092.66
2024-01-04T01:38:03.274Z,97104.91
2024-01-04T01:41:04.753Z,97106.75
2024-01-04T01:44:06.198Z,97121.66
2024-01-04T01:47:07.602Z,97133.75
2024-01-04T01:50:10.688Z,97126.97
2024-01-04T01:53:12.254Z,97133.34
2024-01-04T01:56:13.646Z,97138.25
2024-01-04T01:59:21.552Z,97145.00
2024-01-04T02:02:28.738Z,97136.44
2024-01-04T02:05:34.099Z,97140.09
2024-01-04T02:08:35.858Z,97157.09
2024-01-04T02:11:37.432Z,97159.13
2024-01-04T02:14:39.033Z,97168.56
2024-01-04T02:17:40.674Z,97158.94
2024-01-04T02:20:43.569Z,97182.84
2024-01-04T02:23:46.614Z,97213.13
2024-01-04T02:26:48.231Z,97204.13
2024-01-04T02:29:49.911Z,97197.16
2024-01-04T02:32:51.511Z,97210.66
2024-01-04T02:35:53.370Z,97216.56
2024-01-04T02:38:58.616Z,97224.38
2024-01-04T02:42:00.369Z,97227.22
2024-01-04T02:45:02.046Z,97241.13
2024-01-04T02:48:04.163Z,97261.19
2024-01-04T02:51:06.529Z,97257.69
2024-01-04T02:54:09.419Z,97275.72
2024-01-04T02:57:11.142Z,97281.84
2024-01-04T03:00:13.384Z,97272.03
2024-01-04T03:03:15.289Z,97273.88
2024-01-04T03:06:16.915Z,97278.97
2024-01-04T03:09:20.201Z,97261.16
2024-01-04T03:12:22.044Z,97275.09
2024-01-04T03:15:23.611Z,97252.13
2024-01-04T03:18:25.228Z,97249.03
2024-01-04T03:21:26.725Z,97264.81
2024-01-04T03:24:32.095Z,97248.53
2024-01-04T03:27:33.492Z,97275.41
2024-01-04T03:30:35.030Z,97281.69
2024-01-04T03:33:36.703Z,97280.88
2024-01-04T03:36:38.272Z,97299.84
2024-01-04T03:39:40.954Z,97291.84
2024-01-04T03:42:45.357Z,97303.91
2024-01-04T03:45:46.761Z,97306.22
2024-01-04T03:48:48.702Z,97281.59
2024-01-04T03:51:50.267Z,97279.50
2024-01-04T03:54:53.020Z,97268.66
2024-01-04T03:57:54.561Z,97285.75
2024-01-04T04:00:56.058Z,97272.84
2024-01-04T04:03:57.675Z,97277.78
2024-01-04T04:06:59.266Z,97284.09
2024-01-04T04:10:02.451Z,97284.25
2024-01-04T04:13:04.231Z,97261.47
2024-01-04T04:16:05.912Z,97269.69
2024-01-04T04:19:07.653Z,97270.28
2024-01-04T04:22:09.293Z,97265.06
2024-01-04T04:25:14.762Z,97293.09
2024-01-04T04:28:16.143Z,97293.72
2024-01-04T04:31:18.474Z,97291.06
2024-01-04T04:34:20.007Z,97301.38
2024-01-04T04:37:21.552Z,97320.66
2024-01-04T04:40:24.355Z,97301.78
2024-01-04T04:43:25.748Z,97332.50
2024-01-04T04:46:27.214Z,97342.28
2024-01-04T04:49:28.849Z,97360.31
2024-01-04T04:52:30.374Z,97350.16
2024-01-04T04:55:33.778Z,97355.84
2024-01-04T04:58:35.430Z,97349.97
2024-01-04T05:01:36.926Z,97372.41
2024-01-04T05:04:38.416Z,97364.28
2024-01-04T05:07:39.810Z,97395.56
2024-01-04T05:10:42.698Z,97394.94
2024-01-04T05:13:44.173Z,97414.97
2024-01-04T05:16:45.634Z,97407.31
2024-01-04T05:19:47.298Z,97426.91
2024-01-04T05:22:48.710Z,97420.13
2024-01-04T05:25:51.533Z,97407.16
2024-01-04T05:28:52.995Z,97434.47
2024-01-04T05:31:55.591Z,97438.84
2024-01-04T05:34:57.029Z,97428.75
2024-01-04T05:37:58.554Z,97450.38
2024-01-04T05:41:01.297Z,97456.13
2024-01-04T05:44:09.388Z,97439.97
2024-01-04T05:47:10.897Z,97431.88
2024-01-04T05:50:12.356Z,97465.44
2024-01-04T05:53:13.750Z,97438.16
2024-01-04T05:56:17.746Z,97460.97
2024-01-04T05:59:19.196Z,97451.63
2024-01-04T06:02:20.738Z,97438.56
2024-01-04T06:05:28.713Z,97448.00
2024-01-04T06:08:30.089Z,97427.38
2024-01-04T06:11:32.864Z,97424.31
2024-01-04T06:14:35.662Z,97431.84
2024-01-04T06:17:37.279Z,97424.25
2024-01-04T06:20:38.819Z,97411.09
2024-01-04T06:23:40.275Z,97412.16
2024-01-04T06:26:43.104Z,97417.84
2024-01-04T06:29:44.587Z,97405.59
2024-01-04T06:32:46.031Z,97395.81
2024-01-04T06:35:47.517Z,97396.00
2024-01-04T06:38:49.094Z,97402.53
2024-01-04T06:41:52.272Z,97359.16
2024-01-04T06:45:01.710Z,97379.69
2024-01-04T06:48:03.425Z,97388.47
2024-01-04T06:51:05.452Z,97386.03
2024-01-04T06:54:06.940Z,97376.66
2024-01-04T06:57:10.209Z,97352.31
2024-01-04T07:00:18.518Z,97356.41
2024-01-04T07:03:20.315Z,97344.50
2024-01-04T07:06:21.826Z,97359.38
2024-01-04T07:09:29.436Z,97356.94
2024-01-04T07:12:33.303Z,97366.25
2024-01-04T07:15:41.435Z,97369.13
2024-01-04T07:18:42.925Z,97369.13
2024-01-04T07:21:50.438Z,97357.38
2024-01-04T07:24:51.931Z,97346.56
2024-01-04T07:27:54.727Z,97355.38
2024-01-04T07:30:56.660Z,97343.44
2024-01-04T07:33:58.412Z,97328.59
2024-01-04T07:37:00.331Z,97333.22
2024-01-04T07:40:01.739Z,97324.38
2024-01-04T07:43:11.014Z,97345.72
2024-01-04T07:49:41.272Z,97361.25
2024-01-04T07:52:42.693Z,97345.22
2024-01-04T07:55:44.121Z,97354.44
2024-01-04T07:58:46.857Z,97337.31
2024-01-04T08:01:48.257Z,97359.84
2024-01-04T08:04:49.619Z,97368.94
2024-01-04T08:07:51.015Z,97374.41
2024-01-04T08:10:52.452Z,97372.50
2024-01-04T08:13:55.184Z,97370.22
2024-01-04T08:17:05.822Z,97386.94
2024-01-04T08:20:07.621Z,97407.50
2024-01-04T08:23:09.060Z,97357.13
2024-01-04T08:26:10.476Z,97402.84
2024-01-04T08:29:20.329Z,97406.88
2024-01-04T08:32:21.761Z,97375.94
2024-01-04T08:35:23.199Z,97361.13
2024-01-04T08:38:31.555Z,97384.84
2024-01-04T08:41:32.941Z,97422.91
2024-01-04T08:44:35.657Z,97416.16
2024-01-04T08:47:37.192Z,97393.44
2024-01-04T08:50:44.911Z,97443.53
2024-01-04T08:53:46.458Z,97413.53
2024-01-04T08:56:47.946Z,97474.97
2024-01-04T08:59:50.770Z,97415.44
2024-01-04T09:02:52.299Z,97455.03
2024-01-04T09:05:53.832Z,97469.13
2024-01-04T09:08:55.504Z,97447.66
2024-01-04T09:11:56.996Z,97512.13
2024-01-04T09:15:06.548Z,97494.25
2024-01-04T09:18:14.924Z,97493.84
2024-01-04T09:21:16.508Z,97482.88
2024-01-04T09:24:18.334Z,97511.56
2024-01-04T09:27:26.613Z,97539.69
2024-01-04T09:30:29.455Z,97548.06
2024-01-04T09:33:30.997Z,97555.84
2024-01-04T09:36:32.479Z,97586.91
2024-01-04T09:39:33.981Z,97555.09
2024-01-04T09:42:35.789Z,97597.03
2024-01-04T09:45:38.472Z,97590.38
2024-01-04T09:48:46.846Z,97609.41
2024-01-04T09:51:48.406Z,97581.38
2024-01-04T09:54:49.831Z,97621.22
2024-01-04T09:57:51.264Z,97599.44
2024-01-04T10:01:00.307Z,97644.56
2024-01-04T10:04:05.012Z,97688.59
2024-01-04T10:07:06.521Z,97712.59
2024-01-04T10:10:17.245Z,97749.81
2024-01-04T10:13:18.640Z,97743.78
2024-01-04T10:16:21.366Z,97754.22
2024-01-04T10:19:23.104Z,97776.59
2024-01-04T10:22:24.596Z,97804.28
2024-01-04T10:25:25.983Z,97795.94
2024-01-04T10:28:27.517Z,97803.34
2024-01-04T10:31:30.231Z,97825.97
2024-01-04T10:34:44.181Z,97842.41
2024-01-04T10:37:55.928Z,97844.19
2024-01-04T10:41:00.611Z,97813.16
2024-01-04T10:44:08.871Z,97833.75
2024-01-04T10:47:18.594Z,97820.31
2024-01-04T10:50:26.771Z,97784.75
2024-01-04T10:53:35.775Z,97773.81
2024-01-04T10:56:37.201Z,97791.09
2024-01-04T11:02:41.781Z,97797.44
2024-01-04T11:05:44.970Z,97809.50
2024-01-04T11:08:52.920Z,97799.06
2024-01-04T11:15:23.834Z,97821.75
2024-01-04T11:18:33.446Z,97761.88
2024-01-04T11:21:38.143Z,97781.78
2024-01-04T11:24:43.474Z,97760.31
2024-01-04T11:27:51.792Z,97748.50
2024-01-04T11:30:59.615Z,97755.25
2024-01-04T11:34:05.282Z,97773.34
2024-01-04T11:37:10.698Z,97779.66
2024-01-04T11:40:18.570Z,97807.69
2024-01-04T11:43:20.138Z,97792.13
2024-01-04T11:46:28.080Z,97767.34
2024-01-04T11:49:31.162Z,97773.81
2024-01-04T11:52:32.725Z,97770.97
2024-01-04T11:55:35.249Z,97815.63
2024-01-04T11:58:36.685Z,97809.38
2024-01-04T12:01:38.220Z,97782.25
2024-01-04T12:04:40.990Z,97799.88
2024-01-04T12:07:42.447Z,97802.00
2024-01-04T12:10:43.911Z,97791.59
2024-01-04T12:13:58.635Z,97774.97
2024-01-04T12:17:00.097Z,97773.22
2024-01-04T12:20:10.101Z,97756.56
2024-01-04T12:23:17.836Z,97818.41
2024-01-04T12:26:25.684Z,97831.44
2024-01-04T12:29:27.071Z,97816.44
2024-01-04T12:32:31.880Z,97772.47
2024-01-04T12:39:35.728Z,97773.06
2024-01-04T12:46:19.496Z,97781.56
2024-01-04T12:50:05.022Z,97793.88
2024-01-04T12:53:09.024Z,97788.63
2024-01-04T12:56:49.913Z,97780.38
2024-01-04T13:00:23.865Z,97770.59
2024-01-04T13:07:37.208Z,97793.63
2024-01-04T13:11:20.017Z,97814.50
2024-01-04T13:14:53.665Z,97816.84
2024-01-04T13:22:04.257Z,97817.13
2024-01-04T13:28:51.408Z,97782.09
2024-01-04T13:36:01.881Z,97837.09
2024-01-04T13:43:05.715Z,97875.59
2024-01-04T13:46:42.115Z,97874.34
2024-01-04T13:49:51.296Z,97915.09
2024-01-04T13:52:53.024Z,97893.28
2024-01-04T13:55:54.414Z,97868.34
2024-01-04T13:59:06.473Z,97830.13
2024-01-04T14:02:09.219Z,97879.97
2024-01-04T14:05:10.730Z,97894.50
2024-01-04T14:08:12.180Z,97895.34
2024-01-04T14:11:13.602Z,97948.53
2024-01-04T14:14:17.444Z,97907.03
2024-01-04T14:17:21.494Z,97902.44
2024-01-04T14:20:22.950Z,97916.66
2024-01-04T14:23:24.342Z,97931.72
2024-01-04T14:26:25.719Z,97941.50
2024-01-04T14:29:33.579Z,97934.56
2024-01-04T14:32:36.339Z,97898.88
2024-01-04T14:35:37.861Z,97908.97
2024-01-04T14:38:39.403Z,97908.78
2024-01-04T14:41:41.377Z,97903.84
2024-01-04T14:44:42.851Z,97902.50
2024-01-04T14:47:45.944Z,97928.63
2024-01-04T14:50:47.548Z,97944.66
2024-01-04T14:53:49.028Z,97954.59
2024-01-04T14:56:50.620Z,97975.56
2024-01-04T14:59:52.049Z,97966.97
2024-01-04T15:02:54.845Z,97962.34
2024-01-04T15:05:56.528Z,97944.66
2024-01-04T15:08:58.039Z,97944.97
2024-01-04T15:11:59.493Z,97975.88
2024-01-04T15:15:00.940Z,98008.59
2024-01-04T15:18:10.433Z,98026.91
2024-01-04T15:21:12.019Z,98055.81
2024-01-04T15:24:13.519Z,98063.91
2024-01-04T15:27:14.998Z,98050.16
2024-01-04T15:30:17.655Z,98070.22
2024-01-04T15:33:20.852Z,98065.56
2024-01-04T15:36:29.155Z,98077.00
2024-01-04T15:39:30.879Z,98058.94
2024-01-04T15:42:32.428Z,98073.78
2024-01-04T15:45:33.958Z,98087.56
2024-01-04T15:48:36.794Z,98093.16
2024-01-04T15:51:38.297Z,98094.66
2024-01-04T15:54:39.821Z,98101.94
2024-01-04T15:57:41.230Z,98072.63
2024-01-04T16:00:42.786Z,98119.47
2024-01-04T16:03:46.172Z,98122.13
2024-01-04T16:06:47.822Z,98102.06
2024-01-04T16:09:49.296Z,98093.06
2024-01-04T16:12:50.752Z,98102.38
2024-01-04T16:15:52.152Z,98089.81
2024-01-04T16:18:54.971Z,98079.06
2024-01-04T16:21:56.523Z,98098.66
2024-01-04T16:24:57.912Z,98075.97
2024-01-04T16:27:59.311Z,98085.28
2024-01-04T16:31:00.727Z,98099.28
2024-01-04T16:34:03.656Z,98088.50
2024-01-04T16:37:05.072Z,98090.28
2024-01-04T16:40:06.908Z,98096.41
2024-01-04T16:43:08.274Z,98082.53
2024-01-04T16:46:09.620Z,98121.59
2024-01-04T16:49:12.410Z,98144.97
2024-01-04T16:52:13.866Z,98120.28
2024-01-04T16:55:15.225Z,98146.25
2024-01-04T16:58:22.795Z,98119.91
2024-01-04T17:01:24.416Z,98133.06
2024-01-04T17:04:36.574Z,98142.94
2024-01-04T17:07:38.042Z,98164.66
2024-01-04T17:10:39.540Z,98151.91
2024-01-04T17:13:41.185Z,98147.97
2024-01-04T17:16:42.590Z,98127.72
2024-01-04T17:19:45.385Z,98142.63
2024-01-04T17:22:46.741Z,98131.94
2024-01-04T17:25:48.154Z,98129.16
2024-01-04T17:28:49.540Z,98173.75
2024-01-04T17:31:51.035Z,98151.75
2024-01-04T17:34:53.830Z,98152.16
2024-01-04T17:37:55.209Z,98159.94
2024-01-04T17:40:56.595Z,98175.00
2024-01-04T17:43:58.029Z,98163.44
2024-01-04T17:46:59.468Z,98178.16
2024-01-04T17:50:02.294Z,98168.44
2024-01-04T17:53:04.031Z,98153.84
2024-01-04T17:56:05.639Z,98165.25
2024-01-04T17:59:13.143Z,98171.91
2024-01-04T18:02:14.659Z,98163.78
2024-01-04T18:05:26.757Z,98162.09
2024-01-04T18:08:28.409Z,98161.94
2024-01-04T18:11:36.310Z,98198.50
2024-01-04T18:14:37.890Z,98169.31
2024-01-04T18:17:39.573Z,98155.09
2024-01-04T18:20:42.388Z,98173.78
2024-01-04T18:23:43.879Z,98163.44
2024-01-04T18:26:45.320Z,98178.03
2024-01-04T18:29:46.755Z,98173.09
2024-01-04T18:32:48.283Z,98181.78
2024-01-04T18:35:51.072Z,98173.69
2024-01-04T18:38:58.708Z,98165.38
2024-01-04T18:42:05.819Z,98170.88
2024-01-04T18:45:07.626Z,98141.28
2024-01-04T18:48:09.262Z,98144.06
2024-01-04T18:51:12.497Z,98155.53
2024-01-04T18:54:20.133Z,98153.56
2024-01-04T18:57:21.574Z,98151.25
2024-01-04T19:00:36.075Z,98133.66
2024-01-04T19:03:37.685Z,98135.81
2024-01-04T19:06:40.506Z,98150.19
2024-01-04T19:09:41.886Z,98150.31
2024-01-04T19:12:43.322Z,98155.81
2024-01-04T19:15:52.703Z,98155.88
2024-01-04T19:19:00.025Z,98133.03
2024-01-04T19:22:09.521Z,98117.56
2024-01-04T19:25:11.039Z,98148.41
2024-01-04T19:28:12.462Z,98157.50
2024-01-04T19:31:13.910Z,98133.31
2024-01-04T19:34:15.460Z,98136.75
2024-01-04T19:37:18.353Z,98168.19
2024-01-04T19:40:19.758Z,98163.06
2024-01-04T19:43:21.171Z,98173.31
2024-01-04T19:46:22.670Z,98172.44
2024-01-04T19:49:30.727Z,98172.66
2024-01-04T19:52:33.460Z,98180.78
2024-01-04T19:55:41.004Z,98201.44
2024-01-04T19:58:49.182Z,98212.06
2024-01-04T20:01:57.182Z,98211.97
2024-01-04T20:05:05.856Z,98216.94
2024-01-04T20:08:15.500Z,98214.25
2024-01-04T20:11:16.893Z,98204.72
2024-01-04T20:14:26.642Z,98205.59
2024-01-04T20:17:28.186Z,98216.22
2024-01-04T20:20:29.621Z,98229.19
2024-01-04T20:23:38.982Z,98226.84
2024-01-04T20:26:40.628Z,98210.03
2024-01-04T20:29:49.249Z,98246.44
2024-01-04T20:32:50.726Z,98218.75
2024-01-04T20:35:52.255Z,98254.31
2024-01-04T20:38:55.190Z,98252.13
2024-01-04T20:41:56.614Z,98253.28
2024-01-04T20:44:58.229Z,98234.94
2024-01-04T20:47:59.855Z,98251.88
2024-01-04T20:51:01.662Z,98253.28
2024-01-04T20:54:04.887Z,98245.59
2024-01-04T20:57:06.330Z,98252.34
2024-01-04T21:00:08.583Z,98243.03
2024-01-04T21:03:10.263Z,98228.03
2024-01-04T21:06:11.870Z,98239.63
2024-01-04T21:09:14.781Z,98239.63
2024-01-04T21:12:16.247Z,98243.72
2024-01-04T21:15:17.816Z,98251.09
2024-01-04T21:18:22.334Z,98241.03
2024-01-04T21:21:23.988Z,98242.72
2024-01-04T21:24:40.041Z,98262.06
2024-01-04T21:27:41.444Z,98268.59
2024-01-04T21:30:44.832Z,98238.00
2024-01-04T21:33:46.699Z,98265.34
2024-01-04T21:36:57.465Z,98265.72
2024-01-04T21:40:00.303Z,98252.66
2024-01-04T21:43:04.888Z,98250.53
2024-01-04T21:46:16.286Z,98248.06
2024-01-04T21:49:24.524Z,98245.50
2024-01-04T21:52:26.056Z,98249.53
2024-01-04T21:55:28.806Z,98246.75
2024-01-04T21:58:37.098Z,98252.19
2024-01-04T22:01:38.485Z,98245.25
2024-01-04T22:04:39.884Z,98256.38
2024-01-04T22:07:48.247Z,98251.44
2024-01-04T22:10:50.989Z,98244.75
2024-01-04T22:13:59.139Z,98251.81
2024-01-04T22:17:00.533Z,98252.66
2024-01-04T22:20:02.005Z,98243.50
2024-01-04T22:23:10.053Z,98250.50
2024-01-04T22:26:19.471Z,98253.38
2024-01-04T22:29:30.485Z,98243.94
2024-01-04T22:32:31.952Z,98256.47
2024-01-04T22:35:33.368Z,98250.31
2024-01-04T22:42:05.358Z,98236.13
2024-01-04T22:45:07.162Z,98215.22
2024-01-04T22:48:15.425Z,98213.06
2024-01-04T22:51:18.268Z,98234.19
2024-01-04T22:54:19.992Z,98227.97
2024-01-04T22:57:22.974Z,98221.63
2024-01-04T23:00:31.119Z,98220.72
2024-01-04T23:03:32.897Z,98210.50
2024-01-04T23:06:34.692Z,98216.34
2024-01-04T23:09:36.167Z,98220.81
2024-01-04T23:12:39.022Z,98218.66
2024-01-04T23:15:40.606Z,98229.22
2024-01-04T23:18:42.211Z,98205.38
2024-01-04T23:21:50.414Z,98215.16
2024-01-04T23:24:58.118Z,98212.16
2024-01-04T23:28:01.039Z,98222.16
2024-01-04T23:31:02.607Z,98213.38
2024-01-04T23:34:04.233Z,98216.06
2024-01-04T23:37:05.897Z,98217.41
2024-01-04T23:40:13.437Z,98211.50
2024-01-04T23:43:16.167Z,98208.97
2024-01-04T23:46:17.627Z,98218.34
2024-01-04T23:49:19.116Z,98212.41
2024-01-04T23:52:20.551Z,98203.59
2024-01-04T23:55:21.970Z,98205.13
2024-01-04T23:58:24.686Z,98200.84
